Time;durP1;ratioP1;P1;durP2;ratioP2;P2;SDS_P1;SDS_P2;PMS_P1;PMS_P2;Temp;Humidity;BMP_temperature;BMP_pressure;BME280_temperature;BME280_humidity;BME280_pressure;Samples;Min_cycle;Max_cycle;Signal;HPM_P1;HPM_P2
2022/04/20 00:00:36;;;;;;;15.93;8.40;;;9.50;70.60;;;;;;5015500;28;20022;-61
2022/04/20 00:03:03;;;;;;;24.83;10.55;;;9.50;70.90;;;;;;5034304;28;20041;-62
2022/04/20 00:05:33;;;;;;;15.88;8.93;;;9.50;71.40;;;;;;5033752;28;20029;-60
2022/04/20 00:08:03;;;;;;;16.05;8.93;;;9.50;71.20;;;;;;5034412;28;20029;-62
2022/04/20 00:10:30;;;;;;;19.02;9.80;;;9.40;71.60;;;;;;5033365;28;20544;-61
2022/04/20 00:12:56;;;;;;;16.80;9.65;;;9.40;71.10;;;;;;5033656;28;20105;-59
2022/04/20 00:15:23;;;;;;;16.45;9.65;;;9.40;71.20;;;;;;5034275;28;20029;-62
2022/04/20 00:17:49;;;;;;;15.02;8.80;;;9.40;71.50;;;;;;5015815;28;20030;-60
2022/04/20 00:20:15;;;;;;;17.75;8.48;;;9.30;71.80;;;;;;5033029;28;20025;-60
2022/04/20 00:22:40;;;;;;;15.15;8.48;;;9.30;71.70;;;;;;5033124;28;20478;-57
2022/04/20 00:25:06;;;;;;;16.80;8.55;;;9.30;72.20;;;;;;5015167;28;20057;-62
2022/04/20 00:27:34;;;;;;;17.38;8.38;;;9.20;72.50;;;;;;5033458;28;20030;-60
2022/04/20 00:29:59;;;;;;;16.13;8.30;;;9.20;72.90;;;;;;5032936;28;20040;-61
2022/04/20 00:32:25;;;;;;;15.63;8.30;;;9.10;73.90;;;;;;5033508;28;20025;-61
2022/04/20 00:34:50;;;;;;;14.75;8.43;;;9.10;73.40;;;;;;5032870;28;20109;-61
2022/04/20 00:37:16;;;;;;;16.50;9.02;;;9.10;73.50;;;;;;5033267;28;20025;-60
2022/04/20 00:39:42;;;;;;;15.77;8.98;;;9.00;73.90;;;;;;5014906;28;20182;-60
2022/04/20 00:42:08;;;;;;;16.02;8.90;;;9.00;74.00;;;;;;5015523;28;20505;-60
2022/04/20 00:44:34;;;;;;;16.52;8.88;;;9.00;74.30;;;;;;5032851;28;20033;-62
2022/04/20 00:47:01;;;;;;;15.43;8.73;;;9.00;74.10;;;;;;5015254;28;20397;-60
2022/04/20 00:49:27;;;;;;;16.38;8.60;;;9.00;74.50;;;;;;5015066;28;20036;-62
2022/04/20 00:51:57;;;;;;;15.13;8.50;;;8.90;74.80;;;;;;5033481;28;20030;-61
2022/04/20 00:54:23;;;;;;;16.15;8.75;;;8.90;74.80;;;;;;5032686;28;20398;-62
2022/04/20 00:56:49;;;;;;;15.77;8.55;;;8.90;74.90;;;;;;5015507;28;20087;-58
2022/04/20 00:59:22;;;;;;;15.50;8.05;;;8.90;75.10;;;;;;5014994;28;20021;-62
2022/04/20 01:01:48;;;;;;;14.65;7.95;;;8.80;75.40;;;;;;5033403;28;20022;-62
2022/04/20 01:04:14;;;;;;;14.52;8.00;;;8.80;75.70;;;;;;5015608;28;20112;-62
2022/04/20 01:06:40;;;;;;;16.90;8.98;;;8.90;76.00;;;;;;5016993;28;20061;-62
2022/04/20 01:09:05;;;;;;;15.23;8.43;;;8.80;76.10;;;;;;5034768;28;20408;-63
2022/04/20 01:11:31;;;;;;;16.17;8.63;;;8.70;76.20;;;;;;5035885;28;20029;-63
2022/04/20 01:13:57;;;;;;;17.35;8.27;;;8.70;76.60;;;;;;5017953;28;20029;-63
2022/04/20 01:16:23;;;;;;;16.10;8.88;;;8.70;77.00;;;;;;5016982;28;20482;-61
2022/04/20 01:18:50;;;;;;;15.18;8.48;;;8.60;77.60;;;;;;5033441;28;20029;-62
2022/04/20 01:21:16;;;;;;;16.15;8.65;;;8.50;77.90;;;;;;5016295;28;20314;-58
2022/04/20 01:23:42;;;;;;;16.50;9.23;;;8.50;78.20;;;;;;5015712;28;20424;-60
2022/04/20 01:26:11;;;;;;;16.27;8.30;;;8.50;78.20;;;;;;5033898;28;20034;-62
2022/04/20 01:28:38;;;;;;;16.17;10.07;;;8.50;78.40;;;;;;5017335;28;20041;-63
2022/04/20 01:31:04;;;;;;;15.77;8.38;;;8.50;78.60;;;;;;5035186;28;20170;-62
2022/04/20 01:33:30;;;;;;;16.67;8.50;;;8.50;78.70;;;;;;5034698;28;20033;-62
2022/04/20 01:35:56;;;;;;;15.45;8.23;;;8.40;78.80;;;;;;5030813;28;20508;-58
2022/04/20 01:38:22;;;;;;;15.93;8.60;;;8.40;79.40;;;;;;5033154;28;20120;-60
2022/04/20 01:40:48;;;;;;;15.65;8.25;;;8.40;80.40;;;;;;5033170;28;20025;-60
2022/04/20 01:43:13;;;;;;;15.02;8.50;;;8.30;80.10;;;;;;5015049;28;20025;-62
2022/04/20 01:45:39;;;;;;;15.20;8.20;;;8.30;80.50;;;;;;5032738;28;20060;-62
2022/04/20 01:48:06;;;;;;;14.57;8.10;;;8.20;81.00;;;;;;5033149;28;20045;-61
2022/04/20 01:50:32;;;;;;;15.05;8.65;;;8.20;81.10;;;;;;5032434;28;20022;-63
2022/04/20 01:52:57;;;;;;;15.43;8.52;;;8.20;81.30;;;;;;5033390;28;20557;-60
2022/04/20 01:55:23;;;;;;;16.08;8.15;;;8.10;81.50;;;;;;5032867;28;20024;-58
2022/04/20 01:57:49;;;;;;;16.02;8.57;;;8.10;81.90;;;;;;5014998;28;20034;-58
2022/04/20 02:00:16;;;;;;;18.38;8.48;;;8.10;81.80;;;;;;5032308;28;20030;-60
2022/04/20 02:02:42;;;;;;;16.15;8.68;;;8.10;82.30;;;;;;5032505;28;20037;-62
2022/04/20 02:05:13;;;;;;;15.77;8.38;;;8.10;82.60;;;;;;5032047;28;20021;-62
2022/04/20 02:07:39;;;;;;;15.73;8.27;;;8.10;82.40;;;;;;5032521;28;20029;-59
2022/04/20 02:10:06;;;;;;;14.98;8.57;;;8.10;82.90;;;;;;5031811;28;20026;-57
2022/04/20 02:12:32;;;;;;;17.58;8.38;;;8.10;82.60;;;;;;5032391;28;20029;-60
2022/04/20 02:14:58;;;;;;;136.27;81.43;;;8.00;82.50;;;;;;5031693;28;20039;-57
2022/04/20 02:17:24;;;;;;;26.35;16.73;;;8.10;86.50;;;;;;5032419;28;20025;-62
2022/04/20 02:19:50;;;;;;;17.63;9.00;;;8.20;84.90;;;;;;5014366;28;20481;-60
2022/04/20 02:22:16;;;;;;;16.25;8.27;;;8.20;83.40;;;;;;5014700;28;20021;-57
2022/04/20 02:24:42;;;;;;;15.80;8.77;;;8.10;83.30;;;;;;5032010;28;20022;-60
2022/04/20 02:27:11;;;;;;;15.23;8.70;;;8.10;83.40;;;;;;5032495;28;20033;-61
2022/04/20 02:29:38;;;;;;;14.70;8.02;;;8.00;83.60;;;;;;5013792;28;20104;-58
2022/04/20 02:32:04;;;;;;;15.85;8.57;;;8.00;83.90;;;;;;5031725;28;20017;-63
2022/04/20 02:34:30;;;;;;;14.98;8.65;;;8.00;84.20;;;;;;5031233;28;20025;-64
2022/04/20 02:36:57;;;;;;;15.13;8.35;;;8.00;84.70;;;;;;5014011;28;20379;-62
2022/04/20 02:39:22;;;;;;;15.52;8.60;;;8.00;84.50;;;;;;5031089;28;20028;-63
2022/04/20 02:41:48;;;;;;;15.70;8.52;;;8.00;84.40;;;;;;5031919;28;20025;-62
2022/04/20 02:44:14;;;;;;;14.57;8.10;;;8.00;85.00;;;;;;5013556;28;20440;-61
2022/04/20 02:46:41;;;;;;;15.00;8.45;;;7.90;85.20;;;;;;5015500;28;20030;-60
2022/04/20 02:49:07;;;;;;;16.50;8.63;;;7.90;85.70;;;;;;5036924;28;20048;-61
2022/04/20 02:51:32;;;;;;;15.50;8.57;;;7.90;85.80;;;;;;5035310;28;20029;-56
2022/04/20 02:53:58;;;;;;;51.63;32.28;;;7.80;86.40;;;;;;5017274;28;20445;-63
2022/04/20 02:56:23;;;;;;;30.83;18.88;;;7.90;90.10;;;;;;5034994;28;20048;-61
2022/04/20 02:58:50;;;;;;;26.73;17.17;;;8.00;88.90;;;;;;5016950;28;20080;-62
2022/04/20 03:01:15;;;;;;;18.23;9.55;;;8.00;88.30;;;;;;5035016;28;20107;-60
2022/04/20 03:03:42;;;;;;;15.73;9.00;;;8.00;87.30;;;;;;5034913;28;20029;-61
2022/04/20 03:06:08;;;;;;;15.63;8.55;;;8.00;87.50;;;;;;5034696;28;20033;-61
2022/04/20 03:08:34;;;;;;;15.23;8.40;;;8.00;87.50;;;;;;5016839;28;20508;-59
2022/04/20 03:10:59;;;;;;;16.63;8.77;;;8.00;87.80;;;;;;5034595;28;20053;-61
2022/04/20 03:13:25;;;;;;;16.73;8.30;;;7.90;88.00;;;;;;5034798;28;20433;-62
2022/04/20 03:15:51;;;;;;;15.27;8.38;;;7.80;88.20;;;;;;5034014;28;20025;-63
2022/04/20 03:18:17;;;;;;;16.35;8.90;;;7.90;88.70;;;;;;5016991;28;20044;-61
2022/04/20 03:20:42;;;;;;;15.85;8.30;;;7.80;89.00;;;;;;5034100;28;20064;-58
2022/04/20 03:23:08;;;;;;;16.70;8.55;;;7.80;89.60;;;;;;5034600;28;20041;-61
2022/04/20 03:25:33;;;;;;;17.90;8.68;;;7.70;89.70;;;;;;5016282;28;20017;-60
2022/04/20 03:27:59;;;;;;;15.07;8.80;;;7.60;90.10;;;;;;5016567;28;20450;-61
2022/04/20 03:30:25;;;;;;;14.32;8.40;;;7.50;90.60;;;;;;5033823;28;20112;-61
2022/04/20 03:32:50;;;;;;;14.95;8.55;;;7.50;90.80;;;;;;5016610;28;20025;-61
2022/04/20 03:35:16;;;;;;;16.38;8.73;;;7.50;91.10;;;;;;5033789;28;20041;-59
2022/04/20 03:37:42;;;;;;;16.88;8.88;;;7.40;91.30;;;;;;5033980;28;20025;-61
2022/04/20 03:40:08;;;;;;;17.33;8.70;;;7.40;91.40;;;;;;5033592;28;20108;-61
2022/04/20 03:42:35;;;;;;;14.95;8.93;;;7.30;91.60;;;;;;5034026;28;20029;-62
2022/04/20 03:45:01;;;;;;;17.40;8.73;;;7.30;91.90;;;;;;5033518;28;20481;-61
2022/04/20 03:47:26;;;;;;;15.20;8.30;;;7.30;91.70;;;;;;5016456;28;20036;-62
2022/04/20 03:49:52;;;;;;;15.82;8.60;;;7.20;92.00;;;;;;5015917;28;20025;-62
2022/04/20 03:52:18;;;;;;;14.27;8.20;;;7.20;92.30;;;;;;5015892;28;20560;-59
2022/04/20 03:54:44;;;;;;;15.02;8.52;;;7.20;92.50;;;;;;5033504;28;20037;-62
2022/04/20 03:57:10;;;;;;;16.02;8.73;;;7.10;92.60;;;;;;5033686;28;20052;-58
2022/04/20 03:59:37;;;;;;;16.88;8.20;;;7.00;92.80;;;;;;5033659;28;20382;-60
2022/04/20 04:02:05;;;;;;;14.98;8.65;;;7.00;93.00;;;;;;5033653;28;20048;-61
2022/04/20 04:04:32;;;;;;;20.73;12.73;;;7.00;93.20;;;;;;5033403;28;20028;-59
2022/04/20 04:06:57;;;;;;;25.58;15.98;;;7.00;93.70;;;;;;5033517;28;20079;-59
2022/04/20 04:09:23;;;;;;;18.58;11.88;;;7.00;93.80;;;;;;5015612;28;20029;-64
2022/04/20 04:11:50;;;;;;;22.45;14.00;;;7.00;94.20;;;;;;5033649;28;20082;-61
2022/04/20 04:14:17;;;;;;;16.45;9.77;;;7.10;94.40;;;;;;5033097;28;20040;-63
2022/04/20 04:16:43;;;;;;;18.77;11.15;;;7.10;94.20;;;;;;5033650;28;20025;-63
2022/04/20 04:19:09;;;;;;;16.83;9.80;;;7.20;94.50;;;;;;5033302;28;20021;-58
2022/04/20 04:21:37;;;;;;;15.82;9.80;;;7.20;94.30;;;;;;5033627;28;20164;-62
2022/04/20 04:24:04;;;;;;;15.98;9.52;;;7.10;93.80;;;;;;5033100;28;20022;-62
2022/04/20 04:26:30;;;;;;;15.02;9.00;;;7.00;93.90;;;;;;5033452;28;20065;-61
2022/04/20 04:28:56;;;;;;;20.65;9.52;;;6.90;94.20;;;;;;5015020;28;20179;-61
2022/04/20 04:31:22;;;;;;;16.50;9.13;;;6.90;94.50;;;;;;5033304;28;20032;-60
2022/04/20 04:33:47;;;;;;;15.57;9.00;;;6.90;94.70;;;;;;5033320;28;20030;-62
2022/04/20 04:36:13;;;;;;;17.15;9.63;;;6.90;94.80;;;;;;5015083;28;20053;-62
2022/04/20 04:38:38;;;;;;;17.52;8.88;;;7.00;94.70;;;;;;5015505;28;20014;-63
2022/04/20 04:41:04;;;;;;;15.95;8.77;;;7.00;95.10;;;;;;5014974;28;20030;-62
2022/04/20 04:43:29;;;;;;;17.50;8.90;;;7.00;95.30;;;;;;5015242;28;20030;-64
2022/04/20 04:48:39;;;;;;;16.80;9.43;;;7.00;95.30;;;;;;5033040;28;20401;-61
2022/04/20 04:51:14;;;;;;;17.15;8.93;;;7.10;97.70;;;;;;5032577;28;20017;-62
2022/04/20 04:53:40;;;;;;;17.33;9.13;;;7.40;98.70;;;;;;5033115;28;20041;-63
2022/04/20 04:56:05;;;;;;;17.38;9.27;;;7.70;98.50;;;;;;5014387;28;20459;-62
2022/04/20 04:58:31;;;;;;;16.50;9.35;;;7.90;96.70;;;;;;5033084;28;20036;-61
2022/04/20 05:00:58;;;;;;;17.17;9.57;;;8.00;95.60;;;;;;5032417;28;20032;-63
2022/04/20 05:03:24;;;;;;;17.58;9.90;;;8.00;94.30;;;;;;5014931;28;20028;-63
2022/04/20 05:05:49;;;;;;;17.02;9.60;;;7.90;94.30;;;;;;5032231;28;20022;-62
2022/04/20 05:08:15;;;;;;;17.52;9.10;;;7.80;93.50;;;;;;5032921;28;20153;-61
2022/04/20 05:10:41;;;;;;;19.17;9.80;;;7.80;93.70;;;;;;5031326;28;20465;-61
2022/04/20 05:13:07;;;;;;;18.58;9.40;;;7.80;93.90;;;;;;5032426;28;20078;-62
2022/04/20 05:15:33;;;;;;;16.27;9.45;;;7.80;94.00;;;;;;5013943;28;20037;-63
2022/04/20 05:18:00;;;;;;;18.05;9.77;;;7.90;93.80;;;;;;5032247;28;20029;-59
2022/04/20 05:20:26;;;;;;;16.70;10.00;;;7.80;93.70;;;;;;5032068;28;20033;-60
2022/04/20 05:22:52;;;;;;;17.70;10.55;;;7.90;93.90;;;;;;5032464;28;20026;-61
2022/04/20 05:25:17;;;;;;;21.83;11.48;;;7.90;93.90;;;;;;5032104;28;20159;-62
2022/04/20 05:27:43;;;;;;;18.20;9.20;;;8.00;93.60;;;;;;5014378;28;20025;-61
2022/04/20 05:30:13;;;;;;;16.88;9.60;;;8.00;93.00;;;;;;5014177;28;20028;-65
2022/04/20 05:32:39;;;;;;;19.58;10.57;;;8.10;93.10;;;;;;5032299;28;20643;-60
2022/04/20 05:35:05;;;;;;;18.27;10.07;;;8.10;92.90;;;;;;5031865;28;20108;-62
2022/04/20 05:42:59;;;;;;;20.00;10.57;;;8.30;92.30;;;;;;5032757;28;20257;-61
2022/04/20 05:45:25;;;;;;;19.23;10.50;;;8.40;92.10;;;;;;5031705;28;20037;-60
2022/04/20 05:47:52;;;;;;;18.02;9.95;;;8.40;91.90;;;;;;5014320;28;20072;-61
2022/04/20 05:50:18;;;;;;;19.25;9.43;;;8.50;92.10;;;;;;5013791;28;20029;-62
2022/04/20 05:52:43;;;;;;;15.85;9.18;;;8.60;91.80;;;;;;5014669;28;20048;-61
2022/04/20 05:55:09;;;;;;;20.85;9.38;;;8.60;91.70;;;;;;5031784;28;20029;-61
2022/04/20 05:57:36;;;;;;;16.92;9.73;;;8.70;91.50;;;;;;5032151;28;20036;-61
2022/04/20 06:00:03;;;;;;;20.30;10.27;;;8.70;91.60;;;;;;5031480;28;20017;-62
2022/04/20 06:02:32;;;;;;;15.43;9.00;;;8.70;91.60;;;;;;5031834;28;20064;-62
2022/04/20 06:05:01;;;;;;;16.05;8.95;;;8.80;91.10;;;;;;5013674;28;20121;-61
2022/04/20 06:07:27;;;;;;;16.08;9.85;;;8.80;91.30;;;;;;5031918;28;20439;-61
2022/04/20 06:09:53;;;;;;;16.55;9.60;;;8.90;91.30;;;;;;5031102;28;20034;-62
2022/04/20 06:12:22;;;;;;;17.20;9.35;;;8.90;91.50;;;;;;5014313;28;20030;-60
2022/04/20 06:14:47;;;;;;;17.90;9.75;;;9.00;91.10;;;;;;5055725;23;20029;-60
2022/04/20 06:17:13;;;;;;;15.68;9.88;;;9.00;91.00;;;;;;5070452;28;20054;-61
2022/04/20 06:19:39;;;;;;;18.08;10.20;;;9.10;91.00;;;;;;5070932;28;20111;-63
2022/04/20 06:22:04;;;;;;;16.42;9.35;;;9.20;90.90;;;;;;5073694;28;20372;-61
2022/04/20 06:24:30;;;;;;;18.20;9.93;;;9.20;90.50;;;;;;5074433;28;20028;-64
2022/04/20 06:26:56;;;;;;;17.63;9.98;;;9.30;90.80;;;;;;5074900;28;20538;-61
2022/04/20 06:29:22;;;;;;;16.52;9.00;;;9.30;90.60;;;;;;5074844;28;20032;-64
2022/04/20 06:31:47;;;;;;;17.15;9.68;;;9.40;90.90;;;;;;5075499;28;20405;-60
2022/04/20 06:34:13;;;;;;;18.23;10.57;;;9.40;90.90;;;;;;5074762;28;20385;-63
2022/04/20 06:36:38;;;;;;;16.55;9.38;;;9.50;90.60;;;;;;5074858;28;20043;-62
2022/04/20 06:39:04;;;;;;;17.67;9.18;;;9.60;90.50;;;;;;5074543;28;20021;-63
2022/04/20 06:41:30;;;;;;;25.58;10.82;;;9.60;90.30;;;;;;5075069;28;20065;-63
2022/04/20 06:43:57;;;;;;;17.95;9.32;;;9.70;90.40;;;;;;5074518;28;20024;-58
2022/04/20 06:46:23;;;;;;;17.13;9.70;;;9.70;90.50;;;;;;5074504;28;20187;-63
2022/04/20 06:48:48;;;;;;;16.33;9.32;;;9.80;90.50;;;;;;5056486;28;20572;-63
2022/04/20 06:51:14;;;;;;;16.33;9.57;;;9.90;90.40;;;;;;5056635;28;20484;-63
2022/04/20 06:59:07;;;;;;;19.77;9.70;;;10.10;90.20;;;;;;5074601;28;20031;-63
2022/04/20 07:01:33;;;;;;;16.42;9.15;;;10.20;90.10;;;;;;5074521;28;20016;-63
2022/04/20 07:03:59;;;;;;;17.02;8.60;;;10.20;89.90;;;;;;5056255;28;20415;-64
2022/04/20 07:06:25;;;;;;;17.13;8.70;;;10.30;89.70;;;;;;5073985;28;20559;-63
2022/04/20 07:08:51;;;;;;;16.63;9.30;;;10.30;89.40;;;;;;5073511;28;20048;-63
2022/04/20 07:11:16;;;;;;;16.23;9.07;;;10.40;89.00;;;;;;5074392;28;20104;-62
2022/04/20 07:13:42;;;;;;;16.40;9.05;;;10.40;89.50;;;;;;5056411;28;20033;-63
2022/04/20 07:16:07;;;;;;;18.60;9.30;;;10.50;88.70;;;;;;5073990;28;20036;-63
2022/04/20 07:18:33;;;;;;;16.27;10.60;;;10.60;88.20;;;;;;5073395;28;20359;-63
2022/04/20 07:21:03;;;;;;;18.00;9.27;;;10.60;88.30;;;;;;5073525;28;20025;-63
2022/04/20 07:23:29;;;;;;;16.73;9.52;;;10.60;88.30;;;;;;5073545;28;20086;-63
2022/04/20 07:25:54;;;;;;;17.02;9.68;;;10.70;89.10;;;;;;5055125;28;20029;-63
2022/04/20 07:28:20;;;;;;;15.82;9.23;;;10.90;88.80;;;;;;5073780;28;20032;-63
2022/04/20 07:30:45;;;;;;;17.60;10.10;;;10.90;89.00;;;;;;5073063;28;20662;-63
2022/04/20 07:33:14;;;;;;;16.35;9.30;;;11.10;88.40;;;;;;5054607;28;20027;-63
2022/04/20 07:35:40;;;;;;;16.05;9.13;;;11.10;88.00;;;;;;5053896;28;20392;-61
2022/04/20 07:38:05;;;;;;;17.48;9.20;;;11.10;86.60;;;;;;5072547;28;20025;-60
2022/04/20 07:40:34;;;;;;;16.63;9.70;;;11.10;86.70;;;;;;5073422;28;20021;-63
2022/04/20 07:43:00;;;;;;;;;;;11.20;86.70;;;;;;5073770;28;20512;-63
2022/04/20 07:45:25;;;;;;;16.77;9.00;;;11.20;86.20;;;;;;5073084;28;19942;-62
2022/04/20 07:47:55;;;;;;;18.63;9.27;;;11.30;86.50;;;;;;5072877;28;20431;-61
2022/04/20 07:50:25;;;;;;;15.98;9.00;;;11.40;87.00;;;;;;5055020;28;20082;-62
2022/04/20 07:52:59;;;;;;;15.82;9.50;;;11.50;87.80;;;;;;5072860;28;20087;-62
2022/04/20 07:55:25;;;;;;;16.98;9.80;;;11.60;87.00;;;;;;5072363;28;20028;-63
2022/04/20 07:57:53;;;;;;;15.80;9.50;;;11.70;86.00;;;;;;5073009;28;20025;-56
2022/04/20 08:00:20;;;;;;;15.68;9.43;;;11.80;85.70;;;;;;5072746;28;20043;-63
2022/04/20 08:02:46;;;;;;;18.50;9.35;;;11.80;86.20;;;;;;5073084;28;20052;-62
2022/04/20 08:05:14;;;;;;;15.98;9.50;;;12.00;86.30;;;;;;5072335;28;20027;-66
2022/04/20 08:07:41;;;;;;;17.15;9.60;;;12.00;84.20;;;;;;5073233;28;20032;-63
2022/04/20 08:10:08;;;;;;;16.02;9.30;;;12.00;84.70;;;;;;5054500;28;20032;-63
2022/04/20 08:12:40;;;;;;;15.43;9.68;;;12.10;84.50;;;;;;5054786;28;20571;-62
2022/04/20 08:15:07;;;;;;;17.58;10.00;;;12.20;85.80;;;;;;5072141;28;20036;-63
2022/04/20 08:17:33;;;;;;;16.27;9.50;;;12.30;84.20;;;;;;5072199;28;20147;-62
2022/04/20 08:19:59;;;;;;;17.50;10.32;;;12.40;82.90;;;;;;5071765;28;20443;-62
2022/04/20 08:22:25;;;;;;;19.40;9.35;;;12.40;83.90;;;;;;5072612;28;20381;-62
2022/04/20 08:24:52;;;;;;;14.98;8.93;;;12.50;83.20;;;;;;5054521;28;20035;-62
2022/04/20 08:27:20;;;;;;;20.23;9.90;;;12.50;82.00;;;;;;5072176;28;20099;-62
2022/04/20 08:29:47;;;;;;;17.13;10.40;;;12.60;82.40;;;;;;5071981;28;20054;-62
2022/04/20 08:32:14;;;;;;;17.08;10.05;;;12.70;82.10;;;;;;5053619;28;20082;-64
2022/04/20 08:34:40;;;;;;;18.50;9.32;;;12.80;81.40;;;;;;5070833;28;20024;-59
2022/04/20 08:37:05;;;;;;;19.83;9.40;;;12.90;82.60;;;;;;5071485;28;20107;-61
2022/04/20 08:39:31;;;;;;;19.55;10.73;;;13.10;81.30;;;;;;5070738;28;20460;-63
2022/04/20 08:41:59;;;;;;;16.90;9.20;;;13.00;81.00;;;;;;5071256;28;20028;-60
2022/04/20 08:44:29;;;;;;;;;;;13.00;82.50;;;;;;5071567;28;20490;-63
2022/04/20 08:47:00;;;;;;;16.20;9.52;;;13.10;81.20;;;;;;5071056;28;19973;-61
2022/04/20 08:49:26;;;;;;;16.05;9.30;;;13.00;77.90;;;;;;5070932;28;20093;-63
2022/04/20 08:54:37;;;;;;;20.08;9.45;;;13.20;80.00;;;;;;5062077;28;20056;-59
2022/04/20 08:57:15;;;;;;;14.82;8.90;;;13.30;79.10;;;;;;5060216;28;20041;-60
2022/04/20 08:59:44;;;;;;;16.98;9.40;;;13.40;79.20;;;;;;5042723;28;20045;-61
2022/04/20 09:02:13;;;;;;;15.50;9.23;;;13.60;78.20;;;;;;4714795;28;10000239;-62
2022/04/20 09:04:39;;;;;;;16.60;9.45;;;13.60;77.80;;;;;;5062981;28;20047;-59
2022/04/20 09:07:07;;;;;;;19.17;10.32;;;13.70;78.40;;;;;;5068684;28;20028;-62
2022/04/20 09:09:33;;;;;;;16.45;9.00;;;13.90;77.50;;;;;;5067587;28;20102;-61
2022/04/20 09:11:59;;;;;;;16.02;9.32;;;14.00;76.60;;;;;;5067810;28;20484;-61
2022/04/20 09:14:28;;;;;;;15.80;9.15;;;14.20;76.20;;;;;;5045144;28;20408;-61
2022/04/20 09:16:55;;;;;;;15.75;9.50;;;14.30;75.10;;;;;;5048212;28;20079;-62
2022/04/20 09:19:25;;;;;;;18.65;10.30;;;14.30;74.40;;;;;;5029494;28;20021;-58
2022/04/20 09:21:52;;;;;;;16.38;9.90;;;14.30;75.10;;;;;;5058415;28;20428;-61
2022/04/20 09:24:18;;;;;;;18.17;9.73;;;14.40;75.00;;;;;;5057489;28;20060;-57
2022/04/20 09:26:53;;;;;;;17.20;9.88;;;14.60;74.70;;;;;;5050583;28;20037;-60
2022/04/20 09:29:20;;;;;;;17.20;9.77;;;14.70;73.90;;;;;;5049025;28;20493;-61
2022/04/20 09:31:47;;;;;;;16.52;10.18;;;14.80;74.30;;;;;;5050006;28;20028;-60
2022/04/20 09:34:25;;;;;;;16.35;9.27;;;14.70;73.50;;;;;;5050499;28;20065;-60
2022/04/20 09:36:51;;;;;;;18.65;10.00;;;14.70;73.40;;;;;;5050686;28;20025;-61
2022/04/20 09:39:18;;;;;;;17.40;10.07;;;14.70;72.80;;;;;;5064325;28;20389;-60
2022/04/20 09:42:01;;;;;;;16.98;10.05;;;14.80;73.80;;;;;;5070892;28;20439;-57
2022/04/20 09:44:30;;;;;;;17.90;9.85;;;14.90;73.10;;;;;;5070517;28;20027;-58
2022/04/20 09:49:56;;;;;;;16.13;9.55;;;14.90;72.50;;;;;;5070605;28;20035;-58
2022/04/20 09:52:34;;;;;;;16.83;10.27;;;14.90;71.30;;;;;;5070673;28;20027;-60
2022/04/20 09:55:00;;;;;;;15.80;8.93;;;15.00;71.50;;;;;;5051336;28;20074;-58
2022/04/20 09:57:26;;;;;;;18.00;9.50;;;14.90;69.70;;;;;;5072808;28;20446;-61
2022/04/20 09:59:55;;;;;;;17.00;9.60;;;15.00;70.20;;;;;;5074161;28;20025;-60
2022/04/20 10:02:20;;;;;;;16.67;9.40;;;15.10;69.50;;;;;;5074689;28;20073;-61
2022/04/20 10:04:48;;;;;;;16.25;9.57;;;15.30;70.20;;;;;;5073932;28;20536;-57
2022/04/20 10:07:14;;;;;;;16.05;9.85;;;15.50;70.70;;;;;;5074258;28;20029;-62
2022/04/20 10:09:39;;;;;;;16.25;9.50;;;15.80;70.80;;;;;;5073705;28;20020;-61
2022/04/20 10:12:07;;;;;;;15.55;9.45;;;15.90;69.00;;;;;;5074457;28;20029;-62
2022/04/20 10:17:23;;;;;;;16.85;9.80;;;15.90;68.40;;;;;;5074542;28;20083;-60
2022/04/20 10:19:49;;;;;;;17.52;10.07;;;16.10;66.80;;;;;;5056138;28;20509;-60
2022/04/20 10:22:18;;;;;;;18.27;9.88;;;16.00;67.50;;;;;;5074571;28;20025;-61
2022/04/20 10:24:45;;;;;;;17.20;9.52;;;16.00;67.90;;;;;;5073974;28;20284;-60
2022/04/20 10:27:34;;;;;;;15.75;9.75;;;16.20;68.20;;;;;;5073988;28;20032;-59
2022/04/20 10:30:09;;;;;;;16.15;9.15;;;16.20;68.30;;;;;;5055796;28;20028;-62
2022/04/20 10:33:02;;;;;;;18.10;10.90;;;16.40;69.60;;;;;;5056060;28;20052;-61
2022/04/20 10:35:28;;;;;;;15.40;10.05;;;16.40;69.10;;;;;;5073288;28;20046;-62
2022/04/20 10:38:28;;;;;;;18.38;10.43;;;16.40;69.70;;;;;;5073595;28;20081;-61
2022/04/20 10:40:59;;;;;;;15.90;10.10;;;16.50;69.40;;;;;;5009821;28;20756;-62
2022/04/20 10:43:26;;;;;;;16.80;10.10;;;16.60;69.20;;;;;;5053430;28;20028;-61
2022/04/20 10:46:11;;;;;;;18.58;10.02;;;16.10;69.30;;;;;;5053268;28;20032;-62
2022/04/20 10:49:02;;;;;;;16.27;10.15;;;16.00;68.50;;;;;;5053350;28;20076;-62
2022/04/20 10:51:32;;;;;;;16.17;9.65;;;16.20;70.80;;;;;;5053657;28;20123;-63
2022/04/20 10:54:22;;;;;;;17.10;10.75;;;16.50;70.20;;;;;;5053255;28;20025;-62
2022/04/20 10:56:49;;;;;;;17.83;10.23;;;16.50;68.60;;;;;;5053171;28;20028;-62
2022/04/20 10:59:15;;;;;;;16.23;10.38;;;16.60;70.80;;;;;;5053242;28;20029;-61
2022/04/20 11:02:02;;;;;;;15.45;9.80;;;16.70;70.00;;;;;;5053295;28;20028;-62
2022/04/20 11:04:39;;;;;;;16.48;9.93;;;16.60;69.40;;;;;;5052700;28;20469;-63
2022/04/20 11:07:07;;;;;;;16.70;9.48;;;16.90;69.20;;;;;;5053113;28;20397;-60
2022/04/20 11:09:42;;;;;;;15.60;9.52;;;17.10;68.40;;;;;;5034811;28;20057;-63
2022/04/20 11:21:03;;;;;;;16.70;9.80;;;20.10;63.80;;;;;;5052600;28;20515;-59
2022/04/20 11:23:54;;;;;;;19.60;10.00;;;21.20;62.00;;;;;;5052918;28;20112;-62
2022/04/20 11:26:25;;;;;;;16.07;9.90;;;21.90;61.00;;;;;;4492440;28;10000938;-61
2022/04/20 11:28:55;;;;;;;16.33;10.20;;;21.60;60.10;;;;;;5069696;28;20017;-62
2022/04/20 11:31:22;;;;;;;15.60;9.77;;;21.30;59.10;;;;;;5071295;28;20029;-60
2022/04/20 11:33:49;;;;;;;16.30;10.25;;;21.70;59.70;;;;;;5072110;28;20028;-63
2022/04/20 11:36:15;;;;;;;17.85;10.20;;;22.10;58.80;;;;;;5071469;28;20025;-62
2022/04/20 11:38:44;;;;;;;17.73;10.18;;;22.80;57.70;;;;;;5072361;28;20078;-62
2022/04/20 11:41:11;;;;;;;22.65;11.85;;;22.80;58.80;;;;;;5071923;28;20044;-59
2022/04/20 11:43:38;;;;;;;16.00;10.40;;;23.40;56.50;;;;;;5072791;28;20392;-61
2022/04/20 11:46:08;;;;;;;15.40;10.43;;;23.60;56.30;;;;;;5072464;28;20020;-62
2022/04/20 11:48:50;;;;;;;17.10;11.35;;;24.20;55.20;;;;;;5072440;28;20066;-63
2022/04/20 11:51:23;;;;;;;17.60;11.05;;;23.90;54.20;;;;;;5072594;28;20027;-59
2022/04/20 11:53:49;;;;;;;16.77;10.90;;;23.90;54.40;;;;;;5072545;28;20465;-60
2022/04/20 11:56:15;;;;;;;16.23;11.05;;;23.50;54.40;;;;;;5071923;28;20024;-61
2022/04/20 11:58:46;;;;;;;16.48;11.13;;;23.90;54.30;;;;;;5072179;28;20017;-61
2022/04/20 12:01:12;;;;;;;17.70;10.50;;;24.00;53.70;;;;;;5071837;28;20020;-60
2022/04/20 12:03:41;;;;;;;16.30;10.32;;;25.00;52.20;;;;;;5072116;28;20027;-61
2022/04/20 12:06:09;;;;;;;16.58;11.40;;;25.10;51.70;;;;;;5071114;28;20513;-62
2022/04/20 12:08:42;;;;;;;16.80;11.10;;;26.20;51.60;;;;;;5071602;28;20111;-63
2022/04/20 12:11:10;;;;;;;16.08;10.85;;;27.00;51.20;;;;;;5071288;28;20079;-62
2022/04/20 12:13:36;;;;;;;16.48;11.10;;;26.90;49.90;;;;;;5071693;28;20016;-62
2022/04/20 12:16:07;;;;;;;15.85;10.77;;;27.10;50.20;;;;;;5085683;22;20056;-63
2022/04/20 12:18:36;;;;;;;16.95;11.50;;;27.00;48.30;;;;;;5052996;28;20025;-62
2022/04/20 12:21:07;;;;;;;15.68;10.93;;;26.70;48.20;;;;;;5034390;28;20025;-62
2022/04/20 12:23:36;;;;;;;16.73;10.52;;;26.90;49.30;;;;;;5053070;28;20048;-62
2022/04/20 12:26:05;;;;;;;17.00;10.40;;;27.20;48.10;;;;;;5034441;28;20132;-63
2022/04/20 12:28:41;;;;;;;16.42;11.00;;;26.90;48.20;;;;;;5053009;28;20021;-62
2022/04/20 12:31:09;;;;;;;19.98;11.13;;;27.50;47.80;;;;;;5053941;28;20025;-63
2022/04/20 12:33:37;;;;;;;18.27;11.10;;;27.80;48.40;;;;;;5054574;28;20023;-61
2022/04/20 12:36:06;;;;;;;17.70;11.15;;;;;;;;;;5052972;28;20025;-64
2022/04/20 12:38:44;;;;;;;16.13;10.10;;;28.20;47.40;;;;;;5053281;28;20448;-64
2022/04/20 12:41:37;;;;;;;15.35;10.45;;;26.20;48.30;;;;;;5053094;28;20035;-62
2022/04/20 12:44:33;;;;;;;16.70;10.15;;;26.70;47.80;;;;;;5052553;28;20486;-60
2022/04/20 12:47:08;;;;;;;16.40;9.87;;;27.00;47.70;;;;;;4936274;28;10001305;-61
2022/04/20 12:49:37;;;;;;;15.35;10.13;;;25.90;47.40;;;;;;5049450;28;20331;-62
2022/04/20 12:52:12;;;;;;;17.15;9.90;;;24.80;47.50;;;;;;5031790;28;20128;-63
2022/04/20 12:54:38;;;;;;;15.32;9.88;;;25.90;48.10;;;;;;5049009;28;20109;-62
2022/04/20 13:03:07;;;;;;;15.57;10.23;;;27.80;46.30;;;;;;5037679;28;20075;-62
2022/04/20 13:05:38;;;;;;;16.77;10.18;;;28.60;46.60;;;;;;5039758;28;20481;-63
2022/04/20 13:08:05;;;;;;;16.38;10.73;;;28.70;46.10;;;;;;5038132;28;20030;-62
2022/04/20 13:10:34;;;;;;;16.55;10.40;;;29.00;46.20;;;;;;5038723;28;20352;-64
2022/04/20 13:13:00;;;;;;;15.48;10.52;;;29.80;44.60;;;;;;5047563;28;20393;-63
2022/04/20 13:15:29;;;;;;;17.27;11.02;;;30.10;42.90;;;;;;5050321;28;20025;-61
2022/04/20 13:17:56;;;;;;;17.17;11.07;;;29.40;43.60;;;;;;5032139;28;20094;-61
2022/04/20 13:20:22;;;;;;;17.30;11.37;;;28.60;43.70;;;;;;5042924;28;20012;-63